sensor_id;sensor_type;location;lat;lon;timestamp;temperature;humidity
71177;DHT22;58877;51.992;4.504;2023-08-17T00:02:19;18.80;75.34
71177;DHT22;58877;51.992;4.504;2023-08-17T00:04:44;18.68;75.44
71177;DHT22;58877;51.992;4.504;2023-08-17T00:07:10;18.77;74.82
71177;DHT22;58877;51.992;4.504;2023-08-17T00:09:36;18.75;74.66
71177;DHT22;58877;51.992;4.504;2023-08-17T00:12:01;18.82;74.13
71177;DHT22;58877;51.992;4.504;2023-08-17T00:14:27;18.75;74.28
71177;DHT22;58877;51.992;4.504;2023-08-17T00:16:53;18.88;74.16
71177;DHT22;58877;51.992;4.504;2023-08-17T00:19:18;18.75;73.98
71177;DHT22;58877;51.992;4.504;2023-08-17T00:21:45;18.76;74.21
71177;DHT22;58877;51.992;4.504;2023-08-17T00:24:11;18.79;74.31
71177;DHT22;58877;51.992;4.504;2023-08-17T00:26:37;18.76;74.63
71177;DHT22;58877;51.992;4.504;2023-08-17T00:29:03;18.75;74.79
71177;DHT22;58877;51.992;4.504;2023-08-17T00:31:28;18.73;75.00
71177;DHT22;58877;51.992;4.504;2023-08-17T00:33:54;18.63;75.48
71177;DHT22;58877;51.992;4.504;2023-08-17T00:36:19;18.63;75.43
71177;DHT22;58877;51.992;4.504;2023-08-17T00:38:45;18.55;75.64
71177;DHT22;58877;51.992;4.504;2023-08-17T00:41:10;18.53;75.83
71177;DHT22;58877;51.992;4.504;2023-08-17T00:43:36;18.63;75.42
71177;DHT22;58877;51.992;4.504;2023-08-17T00:46:02;18.58;75.46
71177;DHT22;58877;51.992;4.504;2023-08-17T00:48:29;18.56;75.51
71177;DHT22;58877;51.992;4.504;2023-08-17T00:50:56;18.58;75.38
71177;DHT22;58877;51.992;4.504;2023-08-17T00:53:26;18.51;75.40
71177;DHT22;58877;51.992;4.504;2023-08-17T00:55:53;18.68;75.40
71177;DHT22;58877;51.992;4.504;2023-08-17T00:58:20;18.73;74.98
71177;DHT22;58877;51.992;4.504;2023-08-17T01:00:46;18.65;75.15
71177;DHT22;58877;51.992;4.504;2023-08-17T01:03:12;18.75;74.94
71177;DHT22;58877;51.992;4.504;2023-08-17T01:05:37;18.59;74.64
71177;DHT22;58877;51.992;4.504;2023-08-17T01:08:03;18.65;74.94
71177;DHT22;58877;51.992;4.504;2023-08-17T01:14:07;18.65;73.49
71177;DHT22;58877;51.992;4.504;2023-08-17T01:17:17;18.80;73.62
71177;DHT22;58877;51.992;4.504;2023-08-17T01:19:44;18.59;73.45
71177;DHT22;58877;51.992;4.504;2023-08-17T01:22:14;18.70;72.89
71177;DHT22;58877;51.992;4.504;2023-08-17T01:24:43;18.66;73.23
71177;DHT22;58877;51.992;4.504;2023-08-17T01:27:09;18.63;73.07
71177;DHT22;58877;51.992;4.504;2023-08-17T01:29:35;18.58;73.18
71177;DHT22;58877;51.992;4.504;2023-08-17T01:32:12;18.47;73.24
71177;DHT22;58877;51.992;4.504;2023-08-17T01:34:44;18.38;73.20
71177;DHT22;58877;51.992;4.504;2023-08-17T01:37:18;18.47;73.47
71177;DHT22;58877;51.992;4.504;2023-08-17T01:39:52;18.45;72.77
71177;DHT22;58877;51.992;4.504;2023-08-17T01:42:19;18.39;72.99
71177;DHT22;58877;51.992;4.504;2023-08-17T01:44:48;18.35;72.73
71177;DHT22;58877;51.992;4.504;2023-08-17T01:47:14;18.31;72.99
71177;DHT22;58877;51.992;4.504;2023-08-17T01:49:42;18.38;73.02
71177;DHT22;58877;51.992;4.504;2023-08-17T01:52:08;18.42;72.47
71177;DHT22;58877;51.992;4.504;2023-08-17T01:54:34;18.35;72.58
71177;DHT22;58877;51.992;4.504;2023-08-17T01:57:00;18.19;73.16
71177;DHT22;58877;51.992;4.504;2023-08-17T01:59:25;18.39;73.15
71177;DHT22;58877;51.992;4.504;2023-08-17T02:01:51;18.48;72.54
71177;DHT22;58877;51.992;4.504;2023-08-17T02:04:16;18.27;72.65
71177;DHT22;58877;51.992;4.504;2023-08-17T02:06:42;18.34;72.74
71177;DHT22;58877;51.992;4.504;2023-08-17T02:09:07;18.31;72.50
71177;DHT22;58877;51.992;4.504;2023-08-17T02:11:33;18.27;73.15
71177;DHT22;58877;51.992;4.504;2023-08-17T02:13:58;18.17;73.25
71177;DHT22;58877;51.992;4.504;2023-08-17T02:16:24;18.12;73.31
71177;DHT22;58877;51.992;4.504;2023-08-17T02:18:49;18.21;73.55
71177;DHT22;58877;51.992;4.504;2023-08-17T02:21:15;18.19;73.53
71177;DHT22;58877;51.992;4.504;2023-08-17T02:23:40;18.25;73.21
71177;DHT22;58877;51.992;4.504;2023-08-17T02:26:06;18.18;73.24
71177;DHT22;58877;51.992;4.504;2023-08-17T02:28:32;18.08;73.24
71177;DHT22;58877;51.992;4.504;2023-08-17T02:30:58;18.15;73.22
71177;DHT22;58877;51.992;4.504;2023-08-17T02:33:24;18.18;72.91
71177;DHT22;58877;51.992;4.504;2023-08-17T02:35:52;18.19;73.08
71177;DHT22;58877;51.992;4.504;2023-08-17T02:38:18;18.22;72.81
71177;DHT22;58877;51.992;4.504;2023-08-17T02:40:44;18.21;72.94
71177;DHT22;58877;51.992;4.504;2023-08-17T02:43:10;18.04;72.73
71177;DHT22;58877;51.992;4.504;2023-08-17T02:45:35;18.02;73.22
71177;DHT22;58877;51.992;4.504;2023-08-17T02:48:01;18.02;72.97
71177;DHT22;58877;51.992;4.504;2023-08-17T02:50:26;17.93;73.46
71177;DHT22;58877;51.992;4.504;2023-08-17T02:52:52;17.81;73.41
71177;DHT22;58877;51.992;4.504;2023-08-17T02:55:17;17.55;73.70
71177;DHT22;58877;51.992;4.504;2023-08-17T02:57:43;17.70;73.70
71177;DHT22;58877;51.992;4.504;2023-08-17T03:00:09;17.57;74.04
71177;DHT22;58877;51.992;4.504;2023-08-17T03:02:35;17.49;74.65
71177;DHT22;58877;51.992;4.504;2023-08-17T03:05:06;17.51;75.08
71177;DHT22;58877;51.992;4.504;2023-08-17T03:07:32;17.55;75.17
71177;DHT22;58877;51.992;4.504;2023-08-17T03:09:57;17.51;75.38
71177;DHT22;58877;51.992;4.504;2023-08-17T03:12:23;17.53;75.51
71177;DHT22;58877;51.992;4.504;2023-08-17T03:14:48;17.40;76.22
71177;DHT22;58877;51.992;4.504;2023-08-17T03:17:14;17.43;76.40
71177;DHT22;58877;51.992;4.504;2023-08-17T03:19:42;17.55;76.14
71177;DHT22;58877;51.992;4.504;2023-08-17T03:22:08;17.53;76.17
71177;DHT22;58877;51.992;4.504;2023-08-17T03:24:33;17.54;76.34
71177;DHT22;58877;51.992;4.504;2023-08-17T03:26:59;17.59;76.18
71177;DHT22;58877;51.992;4.504;2023-08-17T03:29:25;17.60;76.41
71177;DHT22;58877;51.992;4.504;2023-08-17T03:31:51;17.67;75.98
71177;DHT22;58877;51.992;4.504;2023-08-17T03:34:16;17.74;75.82
71177;DHT22;58877;51.992;4.504;2023-08-17T03:36:42;17.57;76.38
71177;DHT22;58877;51.992;4.504;2023-08-17T03:39:07;17.66;76.40
71177;DHT22;58877;51.992;4.504;2023-08-17T03:41:33;17.64;76.44
71177;DHT22;58877;51.992;4.504;2023-08-17T03:43:59;17.69;76.40
71177;DHT22;58877;51.992;4.504;2023-08-17T03:46:24;17.80;76.25
71177;DHT22;58877;51.992;4.504;2023-08-17T03:48:50;17.87;76.09
71177;DHT22;58877;51.992;4.504;2023-08-17T03:51:15;17.90;75.89
71177;DHT22;58877;51.992;4.504;2023-08-17T03:53:41;17.93;75.83
71177;DHT22;58877;51.992;4.504;2023-08-17T03:56:07;17.80;76.06
71177;DHT22;58877;51.992;4.504;2023-08-17T03:58:32;17.74;76.41
71177;DHT22;58877;51.992;4.504;2023-08-17T04:01:00;17.59;76.88
71177;DHT22;58877;51.992;4.504;2023-08-17T04:03:25;17.67;76.92
71177;DHT22;58877;51.992;4.504;2023-08-17T04:05:51;17.66;76.69
71177;DHT22;58877;51.992;4.504;2023-08-17T04:08:17;17.74;76.88
71177;DHT22;58877;51.992;4.504;2023-08-17T04:10:42;17.55;77.08
71177;DHT22;58877;51.992;4.504;2023-08-17T04:13:08;17.53;77.36
71177;DHT22;58877;51.992;4.504;2023-08-17T04:15:34;17.55;77.25
71177;DHT22;58877;51.992;4.504;2023-08-17T04:17:59;17.54;77.46
71177;DHT22;58877;51.992;4.504;2023-08-17T04:20:25;17.50;77.36
71177;DHT22;58877;51.992;4.504;2023-08-17T04:22:51;17.49;77.42
71177;DHT22;58877;51.992;4.504;2023-08-17T04:25:16;17.49;77.46
71177;DHT22;58877;51.992;4.504;2023-08-17T04:27:42;17.55;77.52
71177;DHT22;58877;51.992;4.504;2023-08-17T04:30:08;17.47;77.27
71177;DHT22;58877;51.992;4.504;2023-08-17T04:32:34;17.51;77.23
71177;DHT22;58877;51.992;4.504;2023-08-17T04:35:00;17.59;77.18
71177;DHT22;58877;51.992;4.504;2023-08-17T04:37:25;17.50;77.09
71177;DHT22;58877;51.992;4.504;2023-08-17T04:39:51;17.62;77.29
71177;DHT22;58877;51.992;4.504;2023-08-17T04:42:16;17.49;77.61
71177;DHT22;58877;51.992;4.504;2023-08-17T04:44:45;17.54;77.52
71177;DHT22;58877;51.992;4.504;2023-08-17T04:47:10;17.62;77.48
71177;DHT22;58877;51.992;4.504;2023-08-17T04:49:39;17.64;77.67
71177;DHT22;58877;51.992;4.504;2023-08-17T04:52:04;17.70;77.20
71177;DHT22;58877;51.992;4.504;2023-08-17T04:54:30;17.87;77.06
71177;DHT22;58877;51.992;4.504;2023-08-17T04:56:55;17.91;76.92
71177;DHT22;58877;51.992;4.504;2023-08-17T04:59:21;17.93;76.83
71177;DHT22;58877;51.992;4.504;2023-08-17T05:01:47;18.01;76.71
71177;DHT22;58877;51.992;4.504;2023-08-17T05:04:12;18.11;76.40
71177;DHT22;58877;51.992;4.504;2023-08-17T05:06:38;18.02;76.79
71177;DHT22;58877;51.992;4.504;2023-08-17T05:09:04;18.09;76.82
71177;DHT22;58877;51.992;4.504;2023-08-17T05:11:31;18.15;76.47
71177;DHT22;58877;51.992;4.504;2023-08-17T05:13:56;18.14;76.86
71177;DHT22;58877;51.992;4.504;2023-08-17T05:16:22;18.18;76.52
71177;DHT22;58877;51.992;4.504;2023-08-17T05:18:48;18.12;76.93
71177;DHT22;58877;51.992;4.504;2023-08-17T05:21:13;18.11;76.92
71177;DHT22;58877;51.992;4.504;2023-08-17T05:23:38;17.88;77.64
71177;DHT22;58877;51.992;4.504;2023-08-17T05:26:04;18.07;77.56
71177;DHT22;58877;51.992;4.504;2023-08-17T05:28:30;18.02;77.21
71177;DHT22;58877;51.992;4.504;2023-08-17T05:30:55;17.90;77.58
71177;DHT22;58877;51.992;4.504;2023-08-17T05:33:22;17.87;77.83
71177;DHT22;58877;51.992;4.504;2023-08-17T05:35:54;17.94;77.70
71177;DHT22;58877;51.992;4.504;2023-08-17T05:38:19;18.08;77.53
71177;DHT22;58877;51.992;4.504;2023-08-17T05:40:45;18.14;76.93
71177;DHT22;58877;51.992;4.504;2023-08-17T05:43:10;18.24;77.09
71177;DHT22;58877;51.992;4.504;2023-08-17T05:45:36;18.29;76.68
71177;DHT22;58877;51.992;4.504;2023-08-17T05:48:02;18.29;76.48
71177;DHT22;58877;51.992;4.504;2023-08-17T05:50:28;18.49;76.55
71177;DHT22;58877;51.992;4.504;2023-08-17T05:52:55;18.39;76.14
71177;DHT22;58877;51.992;4.504;2023-08-17T05:55:20;18.44;76.00
71177;DHT22;58877;51.992;4.504;2023-08-17T05:57:46;18.53;76.06
71177;DHT22;58877;51.992;4.504;2023-08-17T06:00:12;18.62;75.33
71177;DHT22;58877;51.992;4.504;2023-08-17T06:02:39;18.53;75.32
71177;DHT22;58877;51.992;4.504;2023-08-17T06:05:05;18.65;75.59
71177;DHT22;58877;51.992;4.504;2023-08-17T06:07:30;18.73;74.88
71177;DHT22;58877;51.992;4.504;2023-08-17T06:09:56;18.72;75.11
71177;DHT22;58877;51.992;4.504;2023-08-17T06:12:21;18.85;75.10
71177;DHT22;58877;51.992;4.504;2023-08-17T06:14:47;18.96;74.80
71177;DHT22;58877;51.992;4.504;2023-08-17T06:17:12;19.04;74.76
71177;DHT22;58877;51.992;4.504;2023-08-17T06:19:38;18.92;74.40
71177;DHT22;58877;51.992;4.504;2023-08-17T06:22:05;18.79;74.75
71177;DHT22;58877;51.992;4.504;2023-08-17T06:24:30;18.83;74.71
71177;DHT22;58877;51.992;4.504;2023-08-17T06:26:56;18.89;74.99
71177;DHT22;58877;51.992;4.504;2023-08-17T06:29:21;18.99;74.77
71177;DHT22;58877;51.992;4.504;2023-08-17T06:31:47;18.96;74.61
71177;DHT22;58877;51.992;4.504;2023-08-17T06:34:13;19.00;74.42
71177;DHT22;58877;51.992;4.504;2023-08-17T06:36:38;19.04;75.00
71177;DHT22;58877;51.992;4.504;2023-08-17T06:39:04;19.19;74.47
71177;DHT22;58877;51.992;4.504;2023-08-17T06:41:30;19.37;74.08
71177;DHT22;58877;51.992;4.504;2023-08-17T06:43:55;19.06;74.49
71177;DHT22;58877;51.992;4.504;2023-08-17T06:46:21;18.99;74.68
71177;DHT22;58877;51.992;4.504;2023-08-17T06:48:47;18.83;75.32
71177;DHT22;58877;51.992;4.504;2023-08-17T06:51:12;18.99;74.98
71177;DHT22;58877;51.992;4.504;2023-08-17T06:53:38;19.09;74.54
71177;DHT22;58877;51.992;4.504;2023-08-17T06:56:03;19.07;74.78
71177;DHT22;58877;51.992;4.504;2023-08-17T06:58:29;19.27;74.30
71177;DHT22;58877;51.992;4.504;2023-08-17T07:00:55;19.07;74.63
71177;DHT22;58877;51.992;4.504;2023-08-17T07:03:21;19.26;74.27
71177;DHT22;58877;51.992;4.504;2023-08-17T07:05:49;19.41;74.14
71177;DHT22;58877;51.992;4.504;2023-08-17T07:08:15;19.43;74.15
71177;DHT22;58877;51.992;4.504;2023-08-17T07:10:40;19.44;74.19
71177;DHT22;58877;51.992;4.504;2023-08-17T07:13:06;19.77;73.46
71177;DHT22;58877;51.992;4.504;2023-08-17T07:15:31;19.81;73.01
71177;DHT22;58877;51.992;4.504;2023-08-17T07:17:57;20.18;71.94
71177;DHT22;58877;51.992;4.504;2023-08-17T07:20:22;20.35;72.26
71177;DHT22;58877;51.992;4.504;2023-08-17T07:22:48;20.63;71.66
71177;DHT22;58877;51.992;4.504;2023-08-17T07:25:14;20.33;70.64
71177;DHT22;58877;51.992;4.504;2023-08-17T07:27:40;19.97;72.56
71177;DHT22;58877;51.992;4.504;2023-08-17T07:30:06;20.39;71.76
71177;DHT22;58877;51.992;4.504;2023-08-17T07:32:33;20.62;71.79
71177;DHT22;58877;51.992;4.504;2023-08-17T07:34:59;21.02;69.69
71177;DHT22;58877;51.992;4.504;2023-08-17T07:37:24;20.94;69.89
71177;DHT22;58877;51.992;4.504;2023-08-17T07:39:56;20.93;69.51
71177;DHT22;58877;51.992;4.504;2023-08-17T07:42:22;20.92;70.32
71177;DHT22;58877;51.992;4.504;2023-08-17T07:44:47;21.28;70.37
71177;DHT22;58877;51.992;4.504;2023-08-17T07:47:13;21.31;68.10
71177;DHT22;58877;51.992;4.504;2023-08-17T07:49:38;20.87;69.53
71177;DHT22;58877;51.992;4.504;2023-08-17T07:52:04;20.53;69.98
71177;DHT22;58877;51.992;4.504;2023-08-17T07:54:29;20.62;69.92
71177;DHT22;58877;51.992;4.504;2023-08-17T07:56:55;20.77;69.81
71177;DHT22;58877;51.992;4.504;2023-08-17T07:59:21;20.84;69.51
71177;DHT22;58877;51.992;4.504;2023-08-17T08:01:46;20.92;69.68
71177;DHT22;58877;51.992;4.504;2023-08-17T08:04:12;21.03;69.92
71177;DHT22;58877;51.992;4.504;2023-08-17T08:06:37;20.73;69.66
71177;DHT22;58877;51.992;4.504;2023-08-17T08:09:03;20.50;70.20
71177;DHT22;58877;51.992;4.504;2023-08-17T08:11:29;20.80;70.04
71177;DHT22;58877;51.992;4.504;2023-08-17T08:13:59;20.68;69.20
71177;DHT22;58877;51.992;4.504;2023-08-17T08:16:26;20.52;70.08
71177;DHT22;58877;51.992;4.504;2023-08-17T08:18:52;20.89;70.13
71177;DHT22;58877;51.992;4.504;2023-08-17T08:21:17;21.17;69.16
71177;DHT22;58877;51.992;4.504;2023-08-17T08:23:43;21.44;68.20
71177;DHT22;58877;51.992;4.504;2023-08-17T08:26:08;21.65;67.50
71177;DHT22;58877;51.992;4.504;2023-08-17T08:28:34;21.82;66.87
71177;DHT22;58877;51.992;4.504;2023-08-17T08:31:04;21.77;66.81
71177;DHT22;58877;51.992;4.504;2023-08-17T08:33:30;21.59;66.64
71177;DHT22;58877;51.992;4.504;2023-08-17T08:35:55;21.27;68.19
71177;DHT22;58877;51.992;4.504;2023-08-17T08:38:21;21.38;68.15
71177;DHT22;58877;51.992;4.504;2023-08-17T08:40:50;21.44;67.15
71177;DHT22;58877;51.992;4.504;2023-08-17T08:43:16;21.27;67.85
71177;DHT22;58877;51.992;4.504;2023-08-17T08:45:43;21.57;67.34
71177;DHT22;58877;51.992;4.504;2023-08-17T08:48:13;21.74;67.23
71177;DHT22;58877;51.992;4.504;2023-08-17T08:50:40;21.54;67.21
71177;DHT22;58877;51.992;4.504;2023-08-17T08:53:17;21.62;67.36
71177;DHT22;58877;51.992;4.504;2023-08-17T08:55:55;21.30;68.75
71177;DHT22;58877;51.992;4.504;2023-08-17T08:58:25;21.33;68.35
71177;DHT22;58877;51.992;4.504;2023-08-17T09:00:50;21.30;68.94
71177;DHT22;58877;51.992;4.504;2023-08-17T09:03:19;21.77;68.39
71177;DHT22;58877;51.992;4.504;2023-08-17T09:05:47;21.77;67.76
71177;DHT22;58877;51.992;4.504;2023-08-17T09:08:17;21.92;67.23
71177;DHT22;58877;51.992;4.504;2023-08-17T09:10:43;22.19;66.89
71177;DHT22;58877;51.992;4.504;2023-08-17T09:13:09;21.92;66.41
71177;DHT22;58877;51.992;4.504;2023-08-17T09:15:35;21.81;67.38
71177;DHT22;58877;51.992;4.504;2023-08-17T09:18:01;22.15;66.20
71177;DHT22;58877;51.992;4.504;2023-08-17T09:20:42;22.19;66.23
71177;DHT22;58877;51.992;4.504;2023-08-17T09:23:16;22.02;67.48
71177;DHT22;58877;51.992;4.504;2023-08-17T09:25:44;22.04;66.70
71177;DHT22;58877;51.992;4.504;2023-08-17T09:28:17;22.35;66.36
71177;DHT22;58877;51.992;4.504;2023-08-17T09:33:15;22.50;63.99
71177;DHT22;58877;51.992;4.504;2023-08-17T09:35:43;22.57;64.00
71177;DHT22;58877;51.992;4.504;2023-08-17T09:38:09;22.49;65.59
71177;DHT22;58877;51.992;4.504;2023-08-17T09:40:34;22.32;65.21
71177;DHT22;58877;51.992;4.504;2023-08-17T09:43:02;22.53;65.75
71177;DHT22;58877;51.992;4.504;2023-08-17T09:45:28;22.23;65.39
71177;DHT22;58877;51.992;4.504;2023-08-17T09:47:54;22.62;66.14
71177;DHT22;58877;51.992;4.504;2023-08-17T09:50:23;22.29;65.79
71177;DHT22;58877;51.992;4.504;2023-08-17T09:52:53;22.43;65.47
71177;DHT22;58877;51.992;4.504;2023-08-17T09:55:21;22.60;65.14
71177;DHT22;58877;51.992;4.504;2023-08-17T09:57:51;22.55;65.08
71177;DHT22;58877;51.992;4.504;2023-08-17T10:00:20;22.62;63.92
71177;DHT22;58877;51.992;4.504;2023-08-17T10:02:50;22.83;63.73
71177;DHT22;58877;51.992;4.504;2023-08-17T10:05:18;22.49;64.44
71177;DHT22;58877;51.992;4.504;2023-08-17T10:07:54;22.92;63.97
71177;DHT22;58877;51.992;4.504;2023-08-17T10:10:26;23.24;63.84
71177;DHT22;58877;51.992;4.504;2023-08-17T10:12:55;22.48;64.35
71177;DHT22;58877;51.992;4.504;2023-08-17T10:15:25;22.28;65.67
71177;DHT22;58877;51.992;4.504;2023-08-17T10:21:01;23.37;64.43
71177;DHT22;58877;51.992;4.504;2023-08-17T10:23:28;23.33;63.43
71177;DHT22;58877;51.992;4.504;2023-08-17T10:25:54;23.46;61.64
71177;DHT22;58877;51.992;4.504;2023-08-17T10:28:24;23.13;62.69
71177;DHT22;58877;51.992;4.504;2023-08-17T10:30:51;23.20;63.96
71177;DHT22;58877;51.992;4.504;2023-08-17T10:33:18;23.62;62.73
71177;DHT22;58877;51.992;4.504;2023-08-17T10:35:47;23.99;62.96
71177;DHT22;58877;51.992;4.504;2023-08-17T10:38:18;24.09;60.97
71177;DHT22;58877;51.992;4.504;2023-08-17T10:41:08;23.72;61.24
71177;DHT22;58877;51.992;4.504;2023-08-17T10:44:01;23.82;61.69
71177;DHT22;58877;51.992;4.504;2023-08-17T10:46:34;24.02;61.50
71177;DHT22;58877;51.992;4.504;2023-08-17T10:49:08;23.88;60.56
71177;DHT22;58877;51.992;4.504;2023-08-17T10:52:18;23.54;61.64
71177;DHT22;58877;51.992;4.504;2023-08-17T10:54:50;23.43;62.60
71177;DHT22;58877;51.992;4.504;2023-08-17T10:57:32;23.46;63.19
71177;DHT22;58877;51.992;4.504;2023-08-17T11:03:10;24.18;61.54
71177;DHT22;58877;51.992;4.504;2023-08-17T11:05:50;24.44;61.28
71177;DHT22;58877;51.992;4.504;2023-08-17T11:08:38;24.83;61.55
71177;DHT22;58877;51.992;4.504;2023-08-17T11:13:33;23.97;61.07
71177;DHT22;58877;51.992;4.504;2023-08-17T11:16:00;24.46;61.86
71177;DHT22;58877;51.992;4.504;2023-08-17T11:18:26;24.98;59.74
71177;DHT22;58877;51.992;4.504;2023-08-17T11:20:53;25.13;59.45
71177;DHT22;58877;51.992;4.504;2023-08-17T11:23:19;25.33;58.80
71177;DHT22;58877;51.992;4.504;2023-08-17T11:25:45;24.87;58.63
71177;DHT22;58877;51.992;4.504;2023-08-17T11:28:10;24.73;58.27
71177;DHT22;58877;51.992;4.504;2023-08-17T11:30:39;25.13;60.13
71177;DHT22;58877;51.992;4.504;2023-08-17T11:33:05;25.49;58.59
71177;DHT22;58877;51.992;4.504;2023-08-17T11:35:32;25.82;58.53
71177;DHT22;58877;51.992;4.504;2023-08-17T11:37:58;25.85;57.33
71177;DHT22;58877;51.992;4.504;2023-08-17T11:40:26;25.14;57.25
71177;DHT22;58877;51.992;4.504;2023-08-17T11:42:58;25.00;58.33
71177;DHT22;58877;51.992;4.504;2023-08-17T11:45:24;24.63;58.85
71177;DHT22;58877;51.992;4.504;2023-08-17T11:47:50;24.84;58.80
71177;DHT22;58877;51.992;4.504;2023-08-17T11:50:18;25.11;59.39
71177;DHT22;58877;51.992;4.504;2023-08-17T11:52:43;25.42;57.94
71177;DHT22;58877;51.992;4.504;2023-08-17T11:55:09;25.51;57.94
71177;DHT22;58877;51.992;4.504;2023-08-17T11:57:36;25.58;58.54
71177;DHT22;58877;51.992;4.504;2023-08-17T12:00:04;25.78;59.08
71177;DHT22;58877;51.992;4.504;2023-08-17T12:02:36;25.28;58.30
71177;DHT22;58877;51.992;4.504;2023-08-17T12:05:08;24.82;59.09
71177;DHT22;58877;51.992;4.504;2023-08-17T12:07:35;24.60;60.89
71177;DHT22;58877;51.992;4.504;2023-08-17T12:10:04;24.67;59.36
71177;DHT22;58877;51.992;4.504;2023-08-17T12:12:30;24.48;60.42
71177;DHT22;58877;51.992;4.504;2023-08-17T12:14:57;25.07;60.30
71177;DHT22;58877;51.992;4.504;2023-08-17T12:17:24;25.04;60.54
71177;DHT22;58877;51.992;4.504;2023-08-17T12:19:54;25.03;60.77
71177;DHT22;58877;51.992;4.504;2023-08-17T12:22:24;25.47;60.79
71177;DHT22;58877;51.992;4.504;2023-08-17T12:24:50;25.57;57.57
71177;DHT22;58877;51.992;4.504;2023-08-17T12:27:16;25.30;59.71
71177;DHT22;58877;51.992;4.504;2023-08-17T12:30:02;25.23;59.20
71177;DHT22;58877;51.992;4.504;2023-08-17T12:32:28;25.38;58.68
71177;DHT22;58877;51.992;4.504;2023-08-17T12:34:53;25.55;58.96
71177;DHT22;58877;51.992;4.504;2023-08-17T12:37:20;25.77;59.14
71177;DHT22;58877;51.992;4.504;2023-08-17T12:39:47;25.92;58.11
71177;DHT22;58877;51.992;4.504;2023-08-17T12:42:13;25.64;56.91
71177;DHT22;58877;51.992;4.504;2023-08-17T12:44:39;24.90;59.03
71177;DHT22;58877;51.992;4.504;2023-08-17T12:47:05;25.11;60.32
71177;DHT22;58877;51.992;4.504;2023-08-17T12:49:30;25.51;58.69
71177;DHT22;58877;51.992;4.504;2023-08-17T12:51:56;25.92;60.30
71177;DHT22;58877;51.992;4.504;2023-08-17T12:54:22;25.89;56.50
71177;DHT22;58877;51.992;4.504;2023-08-17T12:56:48;25.84;58.65
71177;DHT22;58877;51.992;4.504;2023-08-17T12:59:14;24.96;58.77
71177;DHT22;58877;51.992;4.504;2023-08-17T13:01:40;25.06;60.57
71177;DHT22;58877;51.992;4.504;2023-08-17T13:04:06;25.33;59.46
71177;DHT22;58877;51.992;4.504;2023-08-17T13:06:32;25.44;57.41
71177;DHT22;58877;51.992;4.504;2023-08-17T13:08:58;25.51;57.73
71177;DHT22;58877;51.992;4.504;2023-08-17T13:11:24;25.21;60.00
71177;DHT22;58877;51.992;4.504;2023-08-17T13:13:50;24.87;59.48
71177;DHT22;58877;51.992;4.504;2023-08-17T13:16:15;24.32;60.43
71177;DHT22;58877;51.992;4.504;2023-08-17T13:18:41;24.56;62.28
71177;DHT22;58877;51.992;4.504;2023-08-17T13:21:07;24.69;62.01
71177;DHT22;58877;51.992;4.504;2023-08-17T13:23:32;25.11;61.92
71177;DHT22;58877;51.992;4.504;2023-08-17T13:25:58;25.13;59.46
71177;DHT22;58877;51.992;4.504;2023-08-17T13:28:24;25.08;60.38
71177;DHT22;58877;51.992;4.504;2023-08-17T13:30:49;25.27;60.08
71177;DHT22;58877;51.992;4.504;2023-08-17T13:33:15;25.38;60.31
71177;DHT22;58877;51.992;4.504;2023-08-17T13:35:42;25.33;59.47
71177;DHT22;58877;51.992;4.504;2023-08-17T13:38:08;25.16;60.82
71177;DHT22;58877;51.992;4.504;2023-08-17T13:40:34;25.16;59.92
71177;DHT22;58877;51.992;4.504;2023-08-17T13:43:02;25.14;59.83
71177;DHT22;58877;51.992;4.504;2023-08-17T13:45:28;24.59;60.80
71177;DHT22;58877;51.992;4.504;2023-08-17T13:47:54;24.44;60.79
71177;DHT22;58877;51.992;4.504;2023-08-17T13:50:20;24.63;61.23
71177;DHT22;58877;51.992;4.504;2023-08-17T13:52:48;24.53;60.46
71177;DHT22;58877;51.992;4.504;2023-08-17T13:55:13;24.53;61.73
71177;DHT22;58877;51.992;4.504;2023-08-17T13:57:39;24.63;61.69
71177;DHT22;58877;51.992;4.504;2023-08-17T14:00:08;24.86;62.65
71177;DHT22;58877;51.992;4.504;2023-08-17T14:02:34;24.88;61.73
71177;DHT22;58877;51.992;4.504;2023-08-17T14:05:00;24.72;61.42
71177;DHT22;58877;51.992;4.504;2023-08-17T14:07:25;24.53;62.18
71177;DHT22;58877;51.992;4.504;2023-08-17T14:09:51;24.64;60.73
71177;DHT22;58877;51.992;4.504;2023-08-17T14:12:18;24.44;60.48
71177;DHT22;58877;51.992;4.504;2023-08-17T14:14:46;24.01;61.81
71177;DHT22;58877;51.992;4.504;2023-08-17T14:17:12;23.75;63.80
71177;DHT22;58877;51.992;4.504;2023-08-17T14:19:41;23.91;63.32
71177;DHT22;58877;51.992;4.504;2023-08-17T14:22:08;23.97;62.88
71177;DHT22;58877;51.992;4.504;2023-08-17T14:24:34;23.51;63.97
71177;DHT22;58877;51.992;4.504;2023-08-17T14:27:02;23.16;64.66
71177;DHT22;58877;51.992;4.504;2023-08-17T14:29:28;23.43;65.99
71177;DHT22;58877;51.992;4.504;2023-08-17T14:31:55;23.50;65.12
71177;DHT22;58877;51.992;4.504;2023-08-17T14:34:20;23.53;64.65
71177;DHT22;58877;51.992;4.504;2023-08-17T14:36:47;23.38;63.79
71177;DHT22;58877;51.992;4.504;2023-08-17T14:39:13;23.02;65.40
71177;DHT22;58877;51.992;4.504;2023-08-17T14:41:40;22.96;65.21
71177;DHT22;58877;51.992;4.504;2023-08-17T14:44:08;22.80;65.67
71177;DHT22;58877;51.992;4.504;2023-08-17T14:46:34;23.26;66.01
71177;DHT22;58877;51.992;4.504;2023-08-17T14:49:00;23.65;64.41
71177;DHT22;58877;51.992;4.504;2023-08-17T14:51:28;23.82;63.28
71177;DHT22;58877;51.992;4.504;2023-08-17T14:53:54;23.43;63.32
71177;DHT22;58877;51.992;4.504;2023-08-17T14:56:21;23.48;65.39
71177;DHT22;58877;51.992;4.504;2023-08-17T14:58:48;23.82;64.22
71177;DHT22;58877;51.992;4.504;2023-08-17T15:01:14;23.98;64.08
71177;DHT22;58877;51.992;4.504;2023-08-17T15:03:39;24.13;63.00
71177;DHT22;58877;51.992;4.504;2023-08-17T15:06:10;24.28;63.38
71177;DHT22;58877;51.992;4.504;2023-08-17T15:08:36;24.19;63.32
71177;DHT22;58877;51.992;4.504;2023-08-17T15:11:03;24.12;63.30
71177;DHT22;58877;51.992;4.504;2023-08-17T15:13:28;24.12;63.35
71177;DHT22;58877;51.992;4.504;2023-08-17T15:15:55;24.02;63.14
71177;DHT22;58877;51.992;4.504;2023-08-17T15:18:21;23.79;63.69
71177;DHT22;58877;51.992;4.504;2023-08-17T15:20:46;23.67;64.29
71177;DHT22;58877;51.992;4.504;2023-08-17T15:23:12;23.58;64.32
71177;DHT22;58877;51.992;4.504;2023-08-17T15:25:38;23.58;65.47
71177;DHT22;58877;51.992;4.504;2023-08-17T15:28:03;23.58;64.77
71177;DHT22;58877;51.992;4.504;2023-08-17T15:30:29;23.54;64.79
71177;DHT22;58877;51.992;4.504;2023-08-17T15:32:55;23.55;65.19
71177;DHT22;58877;51.992;4.504;2023-08-17T15:35:21;23.55;65.17
71177;DHT22;58877;51.992;4.504;2023-08-17T15:37:46;23.37;64.88
71177;DHT22;58877;51.992;4.504;2023-08-17T15:40:12;23.36;65.76
71177;DHT22;58877;51.992;4.504;2023-08-17T15:42:38;23.38;65.71
71177;DHT22;58877;51.992;4.504;2023-08-17T15:45:04;23.24;65.59